createdAt,value
2018-08-28T00:00:14.409Z,1014.11
2018-08-28T00:01:24.348Z,1014.1
2018-08-28T00:02:34.055Z,1014.12
2018-08-28T00:03:43.724Z,1014.13
2018-08-28T00:04:53.431Z,1014.1
2018-08-28T00:06:02.327Z,1014.13
2018-08-28T00:07:11.754Z,1014.14
2018-08-28T00:08:20.926Z,1014.14
2018-08-28T00:09:30.085Z,1014.13
2018-08-28T00:10:39.519Z,1014.11
2018-08-28T00:11:48.930Z,1014.12
2018-08-28T00:12:58.344Z,1014.11
2018-08-28T00:14:07.528Z,1014.11
2018-08-28T00:15:16.700Z,1014.11
2018-08-28T00:16:26.104Z,1014.08
2018-08-28T00:17:35.806Z,1014.07
2018-08-28T00:18:45.506Z,1014.11
2018-08-28T00:19:54.919Z,1014.08
2018-08-28T00:21:04.096Z,1014.11
2018-08-28T00:22:13.844Z,1014.12
2018-08-28T00:23:23.014Z,1014.1
2018-08-28T00:24:32.684Z,1014.09
2018-08-28T00:25:42.102Z,1014.09
2018-08-28T00:26:51.252Z,1014.1
2018-08-28T00:28:00.672Z,1014.13
2018-08-28T00:29:10.084Z,1014.11
2018-08-28T00:30:19.758Z,1014.11
2018-08-28T00:31:29.438Z,1014.14
2018-08-28T00:32:38.607Z,1014.12
2018-08-28T00:33:48.306Z,1014.13
2018-08-28T00:34:57.207Z,1014.17
2018-08-28T00:36:06.879Z,1014.13
2018-08-28T00:37:16.030Z,1014.18
2018-08-28T00:38:25.463Z,1014.2
2018-08-28T00:39:34.649Z,1014.17
2018-08-28T00:40:44.316Z,1014.22
2018-08-28T00:41:53.991Z,1014.22
2018-08-28T00:43:03.399Z,1014.21
2018-08-28T00:44:12.819Z,1014.23
2018-08-28T00:45:22.239Z,1014.25
2018-08-28T00:46:31.396Z,1014.26
2018-08-28T00:47:40.827Z,1014.25
2018-08-28T00:48:50.507Z,1014.32
2018-08-28T00:49:59.670Z,1014.29
2018-08-28T00:51:08.821Z,1014.31
2018-08-28T00:52:17.783Z,1014.34
2018-08-28T00:53:27.861Z,1014.33
2018-08-28T00:54:37.535Z,1014.37
2018-08-28T00:55:47.277Z,1014.36
2018-08-28T00:56:59.730Z,1014.36
2018-08-28T00:58:09.435Z,1014.38
2018-08-28T00:59:18.878Z,1014.39
2018-08-28T01:00:28.545Z,1014.4
2018-08-28T01:01:37.952Z,1014.4
2018-08-28T01:02:47.628Z,1014.4
2018-08-28T01:03:56.768Z,1014.39
2018-08-28T01:05:05.945Z,1014.41
2018-08-28T01:06:15.611Z,1014.43
2018-08-28T01:07:25.017Z,1014.43
2018-08-28T01:08:34.203Z,1014.43
2018-08-28T01:09:43.928Z,1014.46
2018-08-28T01:10:53.086Z,1014.44
2018-08-28T01:12:02.509Z,1014.45
2018-08-28T01:13:11.482Z,1014.49
2018-08-28T01:14:20.896Z,1014.48
2018-08-28T01:15:30.644Z,1014.51
2018-08-28T01:16:40.576Z,1014.49
2018-08-28T01:17:49.826Z,1014.52
2018-08-28T01:18:58.735Z,1014.49
2018-08-28T01:20:07.885Z,1014.48
2018-08-28T01:21:17.045Z,1014.53
2018-08-28T01:22:26.718Z,1014.52
2018-08-28T01:23:36.134Z,1014.51
2018-08-28T01:24:45.535Z,1014.55
2018-08-28T01:25:54.940Z,1014.58
2018-08-28T01:27:04.868Z,1014.57
2018-08-28T01:28:14.282Z,1014.57
2018-08-28T01:29:23.743Z,1014.58
2018-08-28T01:30:33.419Z,1014.55
2018-08-28T01:31:43.188Z,1014.59
2018-08-28T01:32:52.092Z,1014.58
2018-08-28T01:34:01.255Z,1014.59
2018-08-28T01:35:10.925Z,1014.57
2018-08-28T01:36:20.623Z,1014.56
2018-08-28T01:37:29.782Z,1014.61
2018-08-28T01:38:38.946Z,1014.6
2018-08-28T01:39:48.624Z,1014.58
2018-08-28T01:40:57.783Z,1014.56
2018-08-28T01:42:07.186Z,1014.54
2018-08-28T01:43:16.411Z,1014.51
2018-08-28T01:44:26.086Z,1014.55
2018-08-28T01:45:35.801Z,1014.54
2018-08-28T01:46:45.767Z,1014.54
2018-08-28T01:47:55.705Z,1014.54
2018-08-28T01:49:05.143Z,1014.54
2018-08-28T01:50:14.557Z,1014.53
2018-08-28T01:51:23.987Z,1014.53
2018-08-28T01:52:33.397Z,1014.52
2018-08-28T01:53:42.550Z,1014.53
2018-08-28T01:54:52.474Z,1014.55
2018-08-28T01:56:01.626Z,1014.54
2018-08-28T01:57:11.297Z,1014.58
2018-08-28T01:58:21.249Z,1014.56
2018-08-28T01:59:30.731Z,1014.57
2018-08-28T02:00:40.654Z,1014.59
2018-08-28T02:01:50.327Z,1014.53
2018-08-28T02:02:59.733Z,1014.54
2018-08-28T02:04:09.146Z,1014.54
2018-08-28T02:05:19.080Z,1014.53
2018-08-28T02:06:29.018Z,1014.52
2018-08-28T02:07:38.442Z,1014.54
2018-08-28T02:08:47.854Z,1014.55
2018-08-28T02:09:57.271Z,1014.56
2018-08-28T02:11:06.432Z,1014.56
2018-08-28T02:12:16.100Z,1014.55
2018-08-28T02:13:25.521Z,1014.55
2018-08-28T02:14:34.937Z,1014.6
2018-08-28T02:15:44.644Z,1014.56
2018-08-28T02:16:54.589Z,1014.6
2018-08-28T02:18:04.022Z,1014.59
2018-08-28T02:19:13.696Z,1014.58
2018-08-28T02:20:23.377Z,1014.6
2018-08-28T02:21:33.380Z,1014.58
2018-08-28T02:22:42.789Z,1014.59
2018-08-28T02:23:52.445Z,1014.6
2018-08-28T02:25:01.881Z,1014.58
2018-08-28T02:26:11.297Z,1014.59
2018-08-28T02:27:20.716Z,1014.57
2018-08-28T02:28:30.145Z,1014.56
2018-08-28T02:29:39.047Z,1014.56
2018-08-28T02:30:48.213Z,1014.59
2018-08-28T02:31:57.626Z,1014.6
2018-08-28T02:33:07.039Z,1014.58
2018-08-28T02:34:16.984Z,1014.58
2018-08-28T02:35:26.420Z,1014.58
2018-08-28T02:36:35.871Z,1014.59
2018-08-28T02:37:45.297Z,1014.6
2018-08-28T02:38:54.987Z,1014.56
2018-08-28T02:40:04.405Z,1014.55
2018-08-28T02:41:13.850Z,1014.6
2018-08-28T02:42:23.521Z,1014.57
2018-08-28T02:43:33.221Z,1014.59
2018-08-28T02:44:42.630Z,1014.54
2018-08-28T02:45:51.780Z,1014.57
2018-08-28T02:47:01.186Z,1014.59
2018-08-28T02:48:10.082Z,1014.59
2018-08-28T02:49:19.759Z,1014.58
2018-08-28T02:50:29.175Z,1014.61
2018-08-28T02:51:38.584Z,1014.59
2018-08-28T02:52:48.252Z,1014.57
2018-08-28T02:53:57.925Z,1014.62
2018-08-28T02:55:06.832Z,1014.63
2018-08-28T02:56:16.305Z,1014.63
2018-08-28T02:57:26.604Z,1014.63
2018-08-28T02:58:36.034Z,1014.64
2018-08-28T02:59:45.709Z,1014.58
2018-08-28T03:00:54.854Z,1014.61
2018-08-28T03:02:04.013Z,1014.61
2018-08-28T03:03:13.442Z,1014.57
2018-08-28T03:04:22.861Z,1014.64
2018-08-28T03:05:32.052Z,1014.62
2018-08-28T03:06:41.220Z,1014.65
2018-08-28T03:07:50.646Z,1014.6
2018-08-28T03:09:00.322Z,1014.6
2018-08-28T03:10:09.478Z,1014.63
2018-08-28T03:11:18.882Z,1014.62
2018-08-28T03:12:29.009Z,1014.63
2018-08-28T03:13:38.678Z,1014.67
2018-08-28T03:14:48.085Z,1014.67
2018-08-28T03:15:57.783Z,1014.64
2018-08-28T03:17:08.405Z,1014.67
2018-08-28T03:18:18.237Z,1014.66
2018-08-28T03:19:28.168Z,1014.66
2018-08-28T03:20:37.617Z,1014.7
2018-08-28T03:21:47.030Z,1014.68
2018-08-28T03:22:56.733Z,1014.69
2018-08-28T03:24:06.681Z,1014.7
2018-08-28T03:25:16.110Z,1014.69
2018-08-28T03:26:25.528Z,1014.72
2018-08-28T03:27:34.951Z,1014.74
2018-08-28T03:28:44.363Z,1014.73
2018-08-28T03:29:54.118Z,1014.75
2018-08-28T03:31:03.559Z,1014.76
2018-08-28T03:32:12.775Z,1014.71
2018-08-28T03:33:22.202Z,1014.74
2018-08-28T03:34:31.599Z,1014.77
2018-08-28T03:35:40.509Z,1014.79
2018-08-28T03:36:49.938Z,1014.78
2018-08-28T03:37:59.615Z,1014.8
2018-08-28T03:39:09.561Z,1014.83
2018-08-28T03:40:18.992Z,1014.83
2018-08-28T03:41:28.407Z,1014.85
2018-08-28T03:42:38.108Z,1014.84
2018-08-28T03:43:47.519Z,1014.78
2018-08-28T03:44:57.211Z,1014.83
2018-08-28T03:46:06.644Z,1014.81
2018-08-28T03:47:16.064Z,1014.83
2018-08-28T03:48:24.969Z,1014.82
2018-08-28T03:49:34.385Z,1014.87
2018-08-28T03:50:44.100Z,1014.86
2018-08-28T03:51:53.525Z,1014.9
2018-08-28T03:53:03.200Z,1014.89
2018-08-28T03:54:13.185Z,1014.91
2018-08-28T03:55:22.885Z,1014.93
2018-08-28T03:56:33.052Z,1014.97
2018-08-28T03:57:43.003Z,1014.97
2018-08-28T03:58:52.169Z,1014.94
2018-08-28T04:00:01.631Z,1015
2018-08-28T04:01:11.044Z,1014.96
2018-08-28T04:02:20.738Z,1014.94
2018-08-28T04:03:29.695Z,1014.96
2018-08-28T04:04:39.593Z,1014.97
2018-08-28T04:05:49.281Z,1014.96
2018-08-28T04:06:58.954Z,1014.99
2018-08-28T04:08:08.936Z,1014.97
2018-08-28T04:09:18.344Z,1015
2018-08-28T04:10:27.526Z,1014.99
2018-08-28T04:11:37.205Z,1014.98
2018-08-28T04:12:46.385Z,1014.97
2018-08-28T04:13:55.810Z,1014.96
2018-08-28T04:15:05.283Z,1014.94
2018-08-28T04:16:14.686Z,1014.93
2018-08-28T04:17:24.354Z,1014.96
2018-08-28T04:18:33.766Z,1014.96
2018-08-28T04:19:43.694Z,1014.97
2018-08-28T04:20:52.852Z,1014.92
2018-08-28T04:22:02.014Z,1014.93
2018-08-28T04:23:11.443Z,1014.92
2018-08-28T04:24:20.583Z,1014.92
2018-08-28T04:25:29.743Z,1014.93
2018-08-28T04:26:39.418Z,1014.93
2018-08-28T04:27:49.087Z,1014.93
2018-08-28T04:28:58.753Z,1014.94
2018-08-28T04:30:08.446Z,1014.92
2018-08-28T04:31:17.608Z,1014.95
2018-08-28T04:32:26.756Z,1014.92
2018-08-28T04:33:36.416Z,1014.93
2018-08-28T04:34:46.081Z,1014.95
2018-08-28T04:35:55.490Z,1014.98
2018-08-28T04:37:05.160Z,1014.97
2018-08-28T04:38:14.581Z,1014.99
2018-08-28T04:39:23.996Z,1014.96
2018-08-28T04:40:33.666Z,1014.99
2018-08-28T04:41:42.882Z,1014.98
2018-08-28T04:42:52.759Z,1014.99
2018-08-28T04:44:01.922Z,1015
2018-08-28T04:45:11.362Z,1015.03
2018-08-28T04:46:21.036Z,1015
2018-08-28T04:47:30.444Z,1015.04
2018-08-28T04:48:39.915Z,1015.07
2018-08-28T04:49:49.740Z,1015.09
2018-08-28T04:50:59.161Z,1015.07
2018-08-28T04:52:08.332Z,1015.08
2018-08-28T04:53:18.441Z,1015.11
2018-08-28T04:54:28.191Z,1015.11
2018-08-28T04:55:37.103Z,1015.16
2018-08-28T04:56:46.830Z,1015.14
2018-08-28T04:57:56.261Z,1015.17
2018-08-28T04:59:05.701Z,1015.2
2018-08-28T05:00:15.444Z,1015.19
2018-08-28T05:01:24.869Z,1015.22
2018-08-28T05:02:34.561Z,1015.19
2018-08-28T05:03:44.268Z,1015.19
2018-08-28T05:04:53.949Z,1015.16
2018-08-28T05:06:03.628Z,1015.17
2018-08-28T05:07:13.041Z,1015.16
2018-08-28T05:08:22.724Z,1015.19
2018-08-28T05:09:32.137Z,1015.16
2018-08-28T05:10:41.309Z,1015.14
2018-08-28T05:11:50.783Z,1015.19
2018-08-28T05:12:59.716Z,1015.18
2018-08-28T05:14:09.389Z,1015.2
2018-08-28T05:15:18.554Z,1015.21
2018-08-28T05:16:27.976Z,1015.21
2018-08-28T05:17:37.393Z,1015.23
2018-08-28T05:18:46.552Z,1015.21
2018-08-28T05:19:56.245Z,1015.25
2018-08-28T05:21:05.924Z,1015.24
2018-08-28T05:22:15.341Z,1015.24
2018-08-28T05:23:24.769Z,1015.26
2018-08-28T05:24:33.944Z,1015.29
2018-08-28T05:25:43.109Z,1015.27
2018-08-28T05:26:53.053Z,1015.3
2018-08-28T05:28:01.960Z,1015.28
2018-08-28T05:29:11.391Z,1015.29
2018-08-28T05:30:20.862Z,1015.31
2018-08-28T05:31:30.737Z,1015.31
2018-08-28T05:32:40.164Z,1015.25
2018-08-28T05:33:49.079Z,1015.3
2018-08-28T05:34:57.971Z,1015.34
2018-08-28T05:36:07.652Z,1015.36
2018-08-28T05:37:17.338Z,1015.32
2018-08-28T05:38:26.509Z,1015.34
2018-08-28T05:39:35.701Z,1015.35
2018-08-28T05:40:45.235Z,1015.33
2018-08-28T05:41:54.666Z,1015.32
2018-08-28T05:43:04.352Z,1015.35
2018-08-28T05:44:13.867Z,1015.34
2018-08-28T05:45:23.039Z,1015.37
2018-08-28T05:46:32.970Z,1015.38
2018-08-28T05:47:42.665Z,1015.4
2018-08-28T05:48:52.345Z,1015.43
2018-08-28T05:50:01.505Z,1015.44
2018-08-28T05:51:10.147Z,1015.39
2018-08-28T05:52:19.306Z,1015.41
2018-08-28T05:53:28.978Z,1015.39
2018-08-28T05:54:38.127Z,1015.44
2018-08-28T05:55:47.622Z,1015.42
2018-08-28T05:56:57.738Z,1015.43
2018-08-28T05:58:07.676Z,1015.41
2018-08-28T05:59:16.833Z,1015.48
2018-08-28T06:00:26.028Z,1015.46
2018-08-28T06:01:35.447Z,1015.48
2018-08-28T06:02:44.634Z,1015.53
2018-08-28T06:03:54.693Z,1015.55
2018-08-28T06:05:04.369Z,1015.55
2018-08-28T06:06:14.063Z,1015.55
2018-08-28T06:07:23.742Z,1015.57
2018-08-28T06:08:32.897Z,1015.57
2018-08-28T06:09:42.670Z,1015.59
2018-08-28T06:10:52.133Z,1015.61
2018-08-28T06:12:01.583Z,1015.65
2018-08-28T06:13:11.093Z,1015.64
2018-08-28T06:14:20.512Z,1015.67
2018-08-28T06:15:29.709Z,1015.69
2018-08-28T06:16:38.878Z,1015.64
2018-08-28T06:17:48.311Z,1015.67
2018-08-28T06:18:57.473Z,1015.67
2018-08-28T06:20:06.619Z,1015.67
2018-08-28T06:21:15.771Z,1015.72
2018-08-28T06:22:25.562Z,1015.7
2018-08-28T06:23:35.508Z,1015.68
2018-08-28T06:24:44.923Z,1015.66
2018-08-28T06:25:54.346Z,1015.63
2018-08-28T06:27:03.777Z,1015.68
2018-08-28T06:28:13.200Z,1015.68
2018-08-28T06:29:22.871Z,1015.67
2018-08-28T06:30:32.546Z,1015.67
2018-08-28T06:31:41.964Z,1015.7
2018-08-28T06:32:50.868Z,1015.75
2018-08-28T06:34:00.886Z,1015.75
2018-08-28T06:35:10.948Z,1015.75
2018-08-28T06:36:20.121Z,1015.73
2018-08-28T06:37:29.598Z,1015.75
2018-08-28T06:38:38.550Z,1015.72
2018-08-28T06:39:48.297Z,1015.76
2018-08-28T06:40:57.709Z,1015.76
2018-08-28T06:42:07.393Z,1015.75
2018-08-28T06:43:16.282Z,1015.76
2018-08-28T06:44:25.861Z,1015.76
2018-08-28T06:45:35.525Z,1015.78
2018-08-28T06:46:44.420Z,1015.78
2018-08-28T06:47:53.577Z,1015.81
2018-08-28T06:49:03.500Z,1015.78
2018-08-28T06:50:12.910Z,1015.81
2018-08-28T06:51:22.070Z,1015.79
2018-08-28T06:52:31.506Z,1015.78
2018-08-28T06:53:41.180Z,1015.85
2018-08-28T06:54:50.578Z,1015.86
2018-08-28T06:56:00.523Z,1015.84
2018-08-28T06:57:09.706Z,1015.83
2018-08-28T06:58:18.875Z,1015.8
2018-08-28T06:59:28.021Z,1015.83
2018-08-28T07:00:36.928Z,1015.85
2018-08-28T07:01:46.621Z,1015.83
2018-08-28T07:02:56.052Z,1015.82
2018-08-28T07:04:06.003Z,1015.87
2018-08-28T07:05:15.429Z,1015.81
2018-08-28T07:06:24.859Z,1015.86
2018-08-28T07:07:34.273Z,1015.87
2018-08-28T07:08:43.693Z,1015.9
2018-08-28T07:09:53.646Z,1015.86
2018-08-28T07:11:03.110Z,1015.88
2018-08-28T07:12:12.817Z,1015.85
2018-08-28T07:13:21.964Z,1015.88
2018-08-28T07:14:31.367Z,1015.91
2018-08-28T07:15:40.578Z,1015.94
2018-08-28T07:16:50.273Z,1015.92
2018-08-28T07:17:59.683Z,1015.88
2018-08-28T07:19:08.569Z,1015.87
2018-08-28T07:20:18.244Z,1015.88
2018-08-28T07:21:27.921Z,1015.88
2018-08-28T07:22:37.076Z,1015.87
2018-08-28T07:23:46.497Z,1015.88
2018-08-28T07:24:56.492Z,1015.89
2018-08-28T07:26:06.013Z,1015.88
2018-08-28T07:27:15.636Z,1015.89
2018-08-28T07:28:25.081Z,1015.89
2018-08-28T07:29:34.510Z,1015.91
2018-08-28T07:30:43.673Z,1015.91
2018-08-28T07:31:53.430Z,1015.91
2018-08-28T07:33:03.597Z,1015.91
2018-08-28T07:34:13.250Z,1015.92
2018-08-28T07:35:22.937Z,1015.92
2018-08-28T07:36:32.627Z,1015.94
2018-08-28T07:37:41.779Z,1015.94
2018-08-28T07:38:51.221Z,1015.96
2018-08-28T07:40:00.631Z,1015.96
2018-08-28T07:41:09.790Z,1015.99
2018-08-28T07:42:19.767Z,1015.97
2018-08-28T07:43:29.445Z,1015.98
2018-08-28T07:44:39.127Z,1015.95
2018-08-28T07:45:48.551Z,1015.94
2018-08-28T07:46:58.239Z,1015.94
2018-08-28T07:48:07.397Z,1015.99
2018-08-28T07:49:17.239Z,1015.94
2018-08-28T07:50:26.407Z,1015.99
2018-08-28T07:51:36.135Z,1015.98
2018-08-28T07:52:45.550Z,1016
2018-08-28T07:53:55.008Z,1015.98
2018-08-28T07:55:06.003Z,1016.01
2018-08-28T07:56:15.160Z,1016.02
2018-08-28T07:57:24.834Z,1016
2018-08-28T07:58:34.523Z,1016.05
2018-08-28T07:59:43.936Z,1016.03
2018-08-28T08:00:53.607Z,1016.02
2018-08-28T08:02:02.784Z,1016.03
2018-08-28T08:03:12.726Z,1016.07
2018-08-28T08:04:22.652Z,1016.06
2018-08-28T08:05:32.081Z,1016.13
2018-08-28T08:06:41.005Z,1016.11
2018-08-28T08:07:50.678Z,1016.11
2018-08-28T08:09:00.388Z,1016.09
2018-08-28T08:10:10.053Z,1016.16
2018-08-28T08:11:19.592Z,1016.14
2018-08-28T08:12:29.021Z,1016.12
2018-08-28T08:13:38.755Z,1016.14
2018-08-28T08:14:48.694Z,1016.14
2018-08-28T08:15:58.459Z,1016.14
2018-08-28T08:17:08.172Z,1016.11
2018-08-28T08:18:17.603Z,1016.11
2018-08-28T08:19:26.565Z,1016.14
2018-08-28T08:20:35.991Z,1016.1
2018-08-28T08:21:45.191Z,1016.1
2018-08-28T08:22:54.880Z,1016.1
2018-08-28T08:24:04.349Z,1016.06
2018-08-28T08:25:13.784Z,1016.08
2018-08-28T08:26:22.956Z,1016.12
2018-08-28T08:27:32.644Z,1016.14
2018-08-28T08:28:42.152Z,1016.13
2018-08-28T08:29:51.859Z,1016.17
2018-08-28T08:31:01.032Z,1016.15
2018-08-28T08:32:10.714Z,1016.11
2018-08-28T08:33:20.166Z,1016.08
2018-08-28T08:34:29.848Z,1016.13
2018-08-28T08:35:39.323Z,1016.13
2018-08-28T08:36:49.279Z,1016.11
2018-08-28T08:37:58.726Z,1016.1
2018-08-28T08:39:08.164Z,1016.1
2018-08-28T08:40:17.320Z,1016.09
2018-08-28T08:41:26.325Z,1016.09
2018-08-28T08:42:36.012Z,1016.07
2018-08-28T08:43:45.713Z,1016.11
2018-08-28T08:44:55.141Z,1016.1
2018-08-28T08:46:04.941Z,1016.11
2018-08-28T08:47:14.113Z,1016.14
2018-08-28T08:48:23.804Z,1016.16
2018-08-28T08:49:33.552Z,1016.13
2018-08-28T08:50:42.987Z,1016.16
2018-08-28T08:51:52.701Z,1016.14
2018-08-28T08:53:01.876Z,1016.13
2018-08-28T08:54:10.792Z,1016.15
2018-08-28T08:55:19.977Z,1016.13
2018-08-28T08:56:29.424Z,1016.19
2018-08-28T08:57:38.336Z,1016.17
2018-08-28T08:58:47.511Z,1016.17
2018-08-28T08:59:57.182Z,1016.14
2018-08-28T09:01:06.646Z,1016.18
2018-08-28T09:02:16.084Z,1016.22
2018-08-28T09:03:25.522Z,1016.18
2018-08-28T09:04:34.992Z,1016.17
2018-08-28T09:05:45.116Z,1016.14
2018-08-28T09:06:54.894Z,1016.14
2018-08-28T09:08:04.419Z,1016.14
2018-08-28T09:09:14.099Z,1016.13
2018-08-28T09:10:23.787Z,1016.12
2018-08-28T09:11:33.230Z,1016.06
2018-08-28T09:12:42.144Z,1016.05
2018-08-28T09:13:51.838Z,1016.08
2018-08-28T09:15:01.568Z,1016.08
2018-08-28T09:16:11.033Z,1016.06
2018-08-28T09:17:20.469Z,1016.06
2018-08-28T09:18:30.410Z,1016.02
2018-08-28T09:19:39.612Z,1015.99
2018-08-28T09:20:49.586Z,1015.96
2018-08-28T09:21:58.515Z,1015.95
2018-08-28T09:23:08.647Z,1015.95
2018-08-28T09:24:18.585Z,1015.93
2018-08-28T09:25:27.263Z,1015.92
2018-08-28T09:26:36.704Z,1015.94
2018-08-28T09:27:46.391Z,1015.93
2018-08-28T09:28:55.815Z,1015.88
2018-08-28T09:30:04.997Z,1015.84
2018-08-28T09:31:13.969Z,1015.87
2018-08-28T09:32:23.742Z,1015.79
2018-08-28T09:33:33.486Z,1015.83
2018-08-28T09:34:42.666Z,1015.84
2018-08-28T09:35:51.847Z,1015.83
2018-08-28T09:37:01.023Z,1015.85
2018-08-28T09:38:10.771Z,1015.81
2018-08-28T09:39:20.644Z,1015.81
2018-08-28T09:40:30.335Z,1015.82
2018-08-28T09:41:39.830Z,1015.8
2018-08-28T09:42:49.011Z,1015.8
2018-08-28T09:43:58.538Z,1015.8
2018-08-28T09:45:08.173Z,1015.8
2018-08-28T09:46:17.378Z,1015.79
2018-08-28T09:47:26.827Z,1015.77
2018-08-28T09:48:36.249Z,1015.78
2018-08-28T09:49:45.708Z,1015.73
2018-08-28T09:50:55.533Z,1015.7
2018-08-28T09:52:05.236Z,1015.74
2018-08-28T09:53:14.397Z,1015.71
2018-08-28T09:54:23.857Z,1015.75
2018-08-28T09:55:33.282Z,1015.74
2018-08-28T09:56:42.366Z,1015.71
2018-08-28T09:57:52.538Z,1015.72
2018-08-28T09:59:02.291Z,1015.69
2018-08-28T10:00:11.714Z,1015.73
2018-08-28T10:01:20.618Z,1015.71
2018-08-28T10:02:29.779Z,1015.7
2018-08-28T10:03:39.526Z,1015.69
2018-08-28T10:04:49.009Z,1015.7
2018-08-28T10:05:59.058Z,1015.67
2018-08-28T10:07:07.981Z,1015.69
2018-08-28T10:08:17.427Z,1015.68
2018-08-28T10:09:26.604Z,1015.68
2018-08-28T10:10:36.040Z,1015.7
2018-08-28T10:11:44.937Z,1015.62
2018-08-28T10:12:54.392Z,1015.62
2018-08-28T10:14:04.083Z,1015.6
2018-08-28T10:15:13.766Z,1015.62
2018-08-28T10:16:22.933Z,1015.62
2018-08-28T10:17:32.457Z,1015.61
2018-08-28T10:18:41.596Z,1015.62
2018-08-28T10:19:50.762Z,1015.62
2018-08-28T10:21:00.195Z,1015.66
2018-08-28T10:22:09.372Z,1015.64
2018-08-28T10:23:18.274Z,1015.63
2018-08-28T10:24:27.960Z,1015.62
2018-08-28T10:25:37.662Z,1015.64
2018-08-28T10:26:46.564Z,1015.63
2018-08-28T10:27:55.986Z,1015.6
2018-08-28T10:29:05.153Z,1015.63
2018-08-28T10:30:13.847Z,1015.56
2018-08-28T10:31:24.169Z,1015.54
2018-08-28T10:32:33.602Z,1015.55
2018-08-28T10:33:43.289Z,1015.56
2018-08-28T10:34:52.188Z,1015.52
2018-08-28T10:36:01.868Z,1015.51
2018-08-28T10:37:11.558Z,1015.48
2018-08-28T10:38:21.312Z,1015.49
2018-08-28T10:39:31.004Z,1015.53
2018-08-28T10:40:40.438Z,1015.53
2018-08-28T10:41:49.590Z,1015.52
2018-08-28T10:42:59.271Z,1015.5
2018-08-28T10:44:08.739Z,1015.56
2018-08-28T10:45:18.205Z,1015.47
2018-08-28T10:46:27.462Z,1015.5
2018-08-28T10:47:37.190Z,1015.49
2018-08-28T10:48:46.861Z,1015.46
2018-08-28T10:49:56.305Z,1015.46
2018-08-28T10:51:05.748Z,1015.48
2018-08-28T10:52:15.696Z,1015.51
2018-08-28T10:53:24.844Z,1015.5
2018-08-28T10:54:34.533Z,1015.52
2018-08-28T10:55:44.206Z,1015.48
2018-08-28T10:56:53.884Z,1015.44
2018-08-28T10:58:03.041Z,1015.4
2018-08-28T10:59:11.976Z,1015.39
2018-08-28T11:00:21.140Z,1015.38
2018-08-28T11:01:30.568Z,1015.41
2018-08-28T11:02:39.732Z,1015.45
2018-08-28T11:03:48.923Z,1015.44
2018-08-28T11:04:58.346Z,1015.45
2018-08-28T11:06:07.512Z,1015.41
2018-08-28T11:07:17.208Z,1015.43
2018-08-28T11:08:27.149Z,1015.39
2018-08-28T11:09:37.049Z,1015.41
2018-08-28T11:10:46.222Z,1015.38
2018-08-28T11:11:55.643Z,1015.37
2018-08-28T11:13:04.551Z,1015.37
2018-08-28T11:14:14.240Z,1015.33
2018-08-28T11:15:23.925Z,1015.29
2018-08-28T11:16:33.102Z,1015.34
2018-08-28T11:17:42.269Z,1015.33
2018-08-28T11:18:51.706Z,1015.31
2018-08-28T11:20:01.393Z,1015.3
2018-08-28T11:21:10.816Z,1015.3
2018-08-28T11:22:20.281Z,1015.28
2018-08-28T11:23:29.904Z,1015.26
2018-08-28T11:24:39.075Z,1015.3
2018-08-28T11:25:48.762Z,1015.3
2018-08-28T11:26:58.187Z,1015.3
2018-08-28T11:28:07.626Z,1015.26
2018-08-28T11:29:17.053Z,1015.26
2018-08-28T11:30:26.198Z,1015.27
2018-08-28T11:31:35.897Z,1015.27
2018-08-28T11:32:44.811Z,1015.28
2018-08-28T11:33:54.256Z,1015.27
2018-08-28T11:35:03.467Z,1015.25
2018-08-28T11:36:13.142Z,1015.23
2018-08-28T11:37:22.594Z,1015.23
2018-08-28T11:38:32.658Z,1015.26
2018-08-28T11:39:42.277Z,1015.25
2018-08-28T11:40:52.415Z,1015.24
2018-08-28T11:42:01.845Z,1015.18
2018-08-28T11:43:11.016Z,1015.18
2018-08-28T11:44:20.756Z,1015.17
2018-08-28T11:45:30.461Z,1015.21
2018-08-28T11:46:40.161Z,1015.17
2018-08-28T11:47:49.610Z,1015.18
2018-08-28T11:48:59.357Z,1015.19
2018-08-28T11:50:08.575Z,1015.12
2018-08-28T11:51:18.013Z,1015.14
2018-08-28T11:52:27.228Z,1015.15
2018-08-28T11:53:37.500Z,1015.07
2018-08-28T11:54:46.914Z,1015.08
2018-08-28T11:55:56.335Z,1015.11
2018-08-28T11:57:05.837Z,1015.11
2018-08-28T11:58:15.513Z,1015.1
2018-08-28T11:59:24.948Z,1015.05
2018-08-28T12:00:34.708Z,1015.11
2018-08-28T12:01:43.609Z,1015.06
2018-08-28T12:02:53.108Z,1015.06
2018-08-28T12:04:02.805Z,1015.09
2018-08-28T12:05:12.130Z,1015.11
2018-08-28T12:06:22.230Z,1015.03
2018-08-28T12:07:32.285Z,1015.01
2018-08-28T12:08:41.805Z,1015.04
2018-08-28T12:09:50.962Z,1015.02
2018-08-28T12:11:00.397Z,1015.01
2018-08-28T12:12:09.555Z,1014.99
2018-08-28T12:13:19.053Z,1014.94
2018-08-28T12:14:27.963Z,1014.95
2018-08-28T12:15:37.125Z,1014.96
2018-08-28T12:16:46.557Z,1014.98
2018-08-28T12:17:56.244Z,1014.92
2018-08-28T12:19:05.669Z,1014.91
2018-08-28T12:20:14.642Z,1014.9
2018-08-28T12:21:23.842Z,1014.92
2018-08-28T12:22:33.964Z,1014.92
2018-08-28T12:23:43.647Z,1014.93
2018-08-28T12:24:52.815Z,1014.97
2018-08-28T12:26:02.246Z,1014.93
2018-08-28T12:27:11.686Z,1014.89
2018-08-28T12:28:21.382Z,1014.9
2018-08-28T12:29:30.814Z,1014.87
2018-08-28T12:30:40.930Z,1014.81
2018-08-28T12:31:50.854Z,1014.78
2018-08-28T12:33:00.282Z,1014.76
2018-08-28T12:34:09.699Z,1014.79
2018-08-28T12:35:19.446Z,1014.76
2018-08-28T12:36:28.895Z,1014.73
2018-08-28T12:37:38.996Z,1014.72
2018-08-28T12:38:48.687Z,1014.73
2018-08-28T12:39:58.642Z,1014.68
2018-08-28T12:41:07.802Z,1014.66
2018-08-28T12:42:17.513Z,1014.63
2018-08-28T12:43:27.193Z,1014.63
2018-08-28T12:44:36.619Z,1014.56
2018-08-28T12:45:46.061Z,1014.63
2018-08-28T12:46:55.479Z,1014.57
2018-08-28T12:48:04.897Z,1014.55
2018-08-28T12:49:14.315Z,1014.51
2018-08-28T12:50:23.511Z,1014.48
2018-08-28T12:51:32.697Z,1014.42
2018-08-28T12:52:42.118Z,1014.42
2018-08-28T12:53:51.818Z,1014.42
2018-08-28T12:55:01.527Z,1014.44
2018-08-28T12:56:11.848Z,1014.43
2018-08-28T12:57:21.525Z,1014.43
2018-08-28T12:58:31.231Z,1014.43
2018-08-28T12:59:41.391Z,1014.42
2018-08-28T13:00:51.098Z,1014.4
2018-08-28T13:02:00.538Z,1014.38
2018-08-28T13:03:10.688Z,1014.39
2018-08-28T13:04:19.846Z,1014.42
2018-08-28T13:05:29.291Z,1014.38
2018-08-28T13:06:38.977Z,1014.4
2018-08-28T13:07:48.398Z,1014.38
2018-08-28T13:08:58.086Z,1014.37
2018-08-28T13:10:07.844Z,1014.3
2018-08-28T13:11:17.840Z,1014.27
2018-08-28T13:12:27.803Z,1014.23
2018-08-28T13:13:37.520Z,1014.16
2018-08-28T13:14:47.107Z,1014.13
2018-08-28T13:15:58.220Z,1014.09
2018-08-28T13:17:07.935Z,1014.1
2018-08-28T13:18:17.648Z,1014.09
2018-08-28T13:19:26.292Z,1014.11
2018-08-28T13:20:35.737Z,1014.07
2018-08-28T13:21:45.245Z,1014.07
2018-08-28T13:22:54.922Z,1014.1
2018-08-28T13:24:04.614Z,1014.08
2018-08-28T13:25:14.198Z,1014.07
2018-08-28T13:26:24.096Z,1014.1
2018-08-28T13:27:33.334Z,1014.04
2018-08-28T13:28:43.038Z,1014.03
2018-08-28T13:29:52.738Z,1014.04
2018-08-28T13:31:02.689Z,1014.06
2018-08-28T13:32:12.395Z,1014.03
2018-08-28T13:33:21.552Z,1013.97
2018-08-28T13:34:30.973Z,1014
2018-08-28T13:35:40.913Z,1013.95
2018-08-28T13:36:50.083Z,1013.98
2018-08-28T13:38:00.019Z,1013.92
2018-08-28T13:39:09.475Z,1013.94
2018-08-28T13:40:18.765Z,1013.91
2018-08-28T13:41:28.448Z,1013.93
2018-08-28T13:42:37.864Z,1013.88
2018-08-28T13:43:47.559Z,1013.95
2018-08-28T13:44:57.250Z,1013.92
2018-08-28T13:46:06.690Z,1013.92
2018-08-28T13:47:16.654Z,1013.92
2018-08-28T13:48:26.194Z,1013.94
2018-08-28T13:49:35.115Z,1013.9
2018-08-28T13:50:44.809Z,1013.88
2018-08-28T13:51:54.501Z,1013.83
2018-08-28T13:53:03.935Z,1013.79
2018-08-28T13:54:13.445Z,1013.76
2018-08-28T13:55:23.601Z,1013.74
2018-08-28T13:56:32.771Z,1013.72
2018-08-28T13:57:41.972Z,1013.72
2018-08-28T13:58:51.436Z,1013.78
2018-08-28T14:00:01.174Z,1013.79
2018-08-28T14:01:11.426Z,1013.79
2018-08-28T14:02:20.862Z,1013.76
2018-08-28T14:03:30.294Z,1013.76